x

Buoy B01 - Western Maine Shelf (44030) Wave Buoy

1:04am - Sat 4th Jul 2015 All times are EDT. -4 hours from GMT.

  • Sig Wave height 2.6ft
  • Peak Period 11s
  • Wind
    7mph
  • Sea Temp 60°f
  • Air Temp 60°f
  • Sea Pressure 1014.4mb
  • Buoy B01 - Western Maine Shelf
  • Buoy B01 - Western Maine Shelf

More Historic Weather Station data

Upgrade to MSW Pro to gain access to the past 30 days of data for over 8000 Wavebouys and Weather Stations around the globe.

Join Pro

Comparision Forecast

View Surf forecast
   
Sat 07/04 1:04am 2.5ft 11s 7
mph
1014.4mb 60f 60f
12:04am 2.5ft 8s 9 11 mph 1014.2mb 59f 61f
Fri 07/03 11:04pm 2.5ft 8s 9 11 mph 1014mb 60f 62f
10:04pm 3.5ft 8s 9 11 mph 1014mb 60f 62f
9:04pm 2.5ft 8s 13
mph
1013.5mb 59f 62f
8:04pm 2.5ft 8s 13 16 mph 1013.5mb 60f 63f
7:04pm 2.5ft 8s 13 16 mph 1013.2mb 60f 63f
6:04pm 2.5ft 8s 13 16 mph 1012.6mb 60f 64f
5:04pm 2.5ft 8s 11 16 mph 1012.9mb 62f 64f
4:04pm 1.3ft 5s 11 16 mph 1012.8mb 62f 65f
3:04pm 2ft 6s 9 11 mph 1012.7mb 63f 65f
2:04pm 2ft 6s 9
mph
1012.8mb 62f 64f
1:04pm 1.6ft 8s 9
mph
1012.9mb 63f 64f
12:04pm 2.5ft 8s 7
mph
1012.7mb 62f 64f
11:04am 2.5ft 8s 4 7 mph 1013.2mb 62f 62f
10:04am 2.5ft 8s 4
mph
1013.4mb 61f 63f
9:04am 2.5ft 8s 2
mph
1013.4mb 60f 60f
8:04am 2.5ft 8s 4 7 mph 1013.2mb 60f 61f
7:04am 2ft 8s 7
mph
1012.6mb 60f 60f
6:04am 2.5ft 8s 7 9 mph 1012.1mb 59f 60f
5:04am 2.5ft 8s 9
mph
1011.6mb 60f 59f
4:04am 2.5ft 8s 9
mph
1011.2mb 60f 60f
3:04am 2.5ft 8s 9 11 mph 1010.9mb 60f 60f
2:04am 3ft 6s 7
mph
1010.8mb 61f 61f
1:04am 3ft 6s 7
mph
1010.5mb 61f 61f
12:04am 3ft 8s 7
mph
1010.7mb 62f 62f
Thu 07/02 11:04pm 3ft 11s  -  2 mph 1010.6mb 61f 62f
10:04pm 3ft 8s 4
mph
1010.7mb 61f 62f
9:04pm 3.5ft 8s 2 4 mph 1010.4mb 61f 63f
8:04pm 3ft 8s 7
mph
1010mb 61f 63f
7:04pm 2.5ft 8s 9
mph
1009.9mb 61f 64f
6:04pm 2.5ft 8s 11 13 mph 1009.9mb 62f 64f
5:04pm 2.5ft 8s 9
mph
1010mb 62f 65f
4:04pm 2.5ft 8s 7 9 mph 1010.2mb 62f 65f
3:04pm 2.5ft 8s 7 9 mph 1010mb 61f 65f
2:04pm 2.5ft 8s 7 9 mph 1009.9mb 61f 65f
1:04pm 3ft 8s 9
mph
1010.3mb 60f 64f
12:04pm 3ft 6s 4 7 mph 1010.3mb 59f 64f
11:04am 3.5ft 6s 7 9 mph 1010.3mb 59f 63f
10:04am 3.5ft 8s 7 9 mph 1010mb 58f 62f
9:04am 3.5ft 8s 7
mph
1009.5mb 56f 61f
8:04am 3.5ft 8s 9 11 mph 1009.1mb 56f 60f
7:04am 3ft 8s 13
mph
1008.9mb 56f 58f
6:04am 2.5ft 8s 9 11 mph 1008.7mb 56f 59f
5:04am 2.5ft 8s 9 11 mph 1008.1mb 56f 59f
4:04am 2.5ft 8s 9
mph
1008mb 56f 59f
3:04am 2.5ft 8s 9 11 mph 1007.4mb 56f 59f
2:04am 2.5ft 8s 11 13 mph 1007.3mb 57f 60f
1:04am 3ft 8s 11 13 mph 1006.5mb 57f 60f
12:04am 3ft 8s 13 16 mph 1006.1mb 58f 61f
Wed 07/01 11:04pm 3ft 5s 11 13 mph 1005.9mb 58f 61f
10:04pm 2.5ft 5s 9 11 mph 1005.7mb 59f 61f
9:04pm 3.5ft 5s 9 11 mph 1005.4mb 59f 62f
8:04pm 3.5ft 5s 7 9 mph 1004.8mb 59f 68f
7:04pm 4ft 5s 9 13 mph 1004.7mb 59f 62f
6:04pm 4ft 5s 11 13 mph 1004.4mb 58f 60f
5:04pm 4.5ft 5s 13 16 mph 1004.7mb 58f 60f
4:04pm 4ft 5s 16 18 mph 1005.1mb 58f 60f
3:04pm 3.5ft 5s 9 13 mph 1006mb 58f 59f
2:04pm 4ft 4s 11 16 mph 1006.2mb 58f 59f
1:04pm 3.5ft 4s 16 18 mph 1005.9mb 58f 59f
12:04pm 4ft 5s 18 20 mph 1006.5mb 58f 58f
11:04am 4ft 8s 20 22 mph 1007.2mb 59f 60f
10:04am 3ft 8s 18 22 mph 1010mb 60f 59f
9:04am 3ft 8s 9
mph
1012.1mb 60f 60f
8:04am 2.5ft 8s 7 9 mph 1011.1mb 61f 60f
7:04am 3ft 8s 11 13 mph 1011mb 60f 60f
6:04am 2.5ft 8s 9 11 mph 1011mb 60f 60f
5:04am 2.5ft 8s 9
mph
1011.9mb 60f 59f
4:04am 2.5ft 8s 9
mph
1012.1mb 59f 60f
3:04am 2.5ft 8s 7 9 mph 1012.4mb 59f 60f
2:04am 2.5ft 6s 7 9 mph 1013mb 60f 61f
1:04am 2.5ft 8s 4
mph
1013.3mb 60f 60f
12:04am 3ft 8s 9
mph
1013.5mb 60f 61f
Tue 06/30 11:04pm 3.5ft 8s 11
mph
1013.5mb 60f 61f
10:04pm 4ft 8s 9
mph
1013.7mb 61f 60f
9:04pm 4ft 8s 9
mph
1013.5mb 61f 60f
8:04pm 3.5ft 8s 11
mph
1013.3mb 61f 61f
6:04pm 3.5ft 8s 11 13 mph 1013.6mb 62f 62f
5:04pm 3ft 8s 9 11 mph 1014.1mb 62f 62f
4:04pm 3ft 8s 9
mph
1014.5mb 62f 63f
3:04pm 3.5ft 8s 9
mph
1014.8mb 62f 62f
2:04pm 2.5ft 8s 7 9 mph 1014.6mb 61f 62f
1:04pm 3.5ft 8s 4 7 mph 1014.9mb 60f 62f
12:04pm 3.5ft 11s 4
mph
1014.9mb 58f 62f
11:04am 3.5ft 11s 4
mph
1014.7mb 60f 61f
10:04am 4ft 11s 4
mph
1014.7mb 59f 60f
9:04am 4.5ft 8s 7 9 mph 1015.1mb 59f 59f
8:04am 4.5ft 11s 4 7 mph 1014.7mb 58f 59f
7:04am 4.5ft 11s 9
mph
1014.1mb 58f 59f